createdAt,value
2022-10-01T00:00:42.580Z,55.26
2022-10-01T00:01:42.626Z,58.49
2022-10-01T00:02:42.735Z,53.01
2022-10-01T00:03:42.554Z,57.45
2022-10-01T00:04:42.559Z,51.67
2022-10-01T00:05:42.538Z,56.79
2022-10-01T00:06:42.528Z,61.64
2022-10-01T00:07:43.405Z,51.33
2022-10-01T00:08:42.506Z,50.59
2022-10-01T00:09:42.516Z,54.35
2022-10-01T00:10:42.500Z,60.95
2022-10-01T00:11:42.495Z,61.61
2022-10-01T00:12:42.488Z,57.62
2022-10-01T00:13:42.479Z,50.78
2022-10-01T00:14:42.464Z,59.22
2022-10-01T00:15:42.469Z,58.11
2022-10-01T00:16:42.501Z,56.28
2022-10-01T00:17:43.983Z,56.63
2022-10-01T00:18:42.438Z,58.33
2022-10-01T00:19:42.430Z,60.05
2022-10-01T00:20:42.423Z,53.22
2022-10-01T00:21:43.397Z,62.34
2022-10-01T00:22:42.403Z,58.00
2022-10-01T00:23:42.389Z,59.38
2022-10-01T00:24:42.382Z,58.88
2022-10-01T00:25:42.369Z,49.70
2022-10-01T00:26:42.368Z,55.27
2022-10-01T00:27:42.359Z,60.61
2022-10-01T00:28:43.895Z,56.42
2022-10-01T00:31:46.911Z,54.50
2022-10-01T00:32:47.872Z,52.87
2022-10-01T00:33:47.876Z,54.91
2022-10-01T00:34:47.869Z,55.87
2022-10-01T00:35:48.696Z,55.36
2022-10-01T00:36:50.649Z,50.33
2022-10-01T00:37:49.656Z,58.29
2022-10-01T00:38:47.827Z,56.45
2022-10-01T00:39:47.814Z,55.92
2022-10-01T00:40:47.809Z,55.60
2022-10-01T00:41:48.734Z,52.28
2022-10-01T00:42:47.797Z,56.61
2022-10-01T00:43:47.813Z,57.45
2022-10-01T00:44:48.656Z,58.36
2022-10-01T00:45:47.789Z,54.35
2022-10-01T00:46:47.771Z,54.46
2022-10-01T00:47:47.755Z,56.19
2022-10-01T00:48:49.733Z,57.80
2022-10-01T00:49:47.738Z,51.85
2022-10-01T00:50:47.727Z,51.53
2022-10-01T00:51:47.725Z,55.66
2022-10-01T00:52:49.648Z,46.98
2022-10-01T00:53:47.712Z,51.24
2022-10-01T00:54:47.710Z,49.59
2022-10-01T00:55:47.692Z,50.29
2022-10-01T00:56:47.683Z,45.42
2022-10-01T00:57:47.674Z,53.81
2022-10-01T00:58:47.680Z,49.89
2022-10-01T00:59:49.238Z,52.19
2022-10-01T01:00:48.671Z,59.95
2022-10-01T01:01:47.693Z,51.57
2022-10-01T01:02:47.742Z,56.45
2022-10-01T01:03:50.255Z,61.68
2022-10-01T01:04:47.627Z,55.27
2022-10-01T01:05:50.234Z,57.85
2022-10-01T01:06:47.610Z,52.47
2022-10-01T01:07:47.597Z,51.38
2022-10-01T01:08:47.604Z,50.85
2022-10-01T01:09:47.585Z,52.01
2022-10-01T01:10:49.233Z,51.25
2022-10-01T01:11:47.566Z,48.26
2022-10-01T01:12:47.555Z,49.43
2022-10-01T01:13:47.551Z,54.17
2022-10-01T01:16:35.439Z,47.79
2022-10-01T01:17:35.439Z,55.54
2022-10-01T01:18:35.423Z,62.37
2022-10-01T01:19:37.308Z,60.56
2022-10-01T01:20:36.497Z,51.58
2022-10-01T01:21:36.884Z,52.04
2022-10-01T01:22:36.489Z,51.49
2022-10-01T01:23:36.480Z,57.05
2022-10-01T01:24:36.468Z,53.36
2022-10-01T01:25:37.315Z,50.60
2022-10-01T01:26:36.466Z,58.67
2022-10-01T01:27:36.449Z,51.63
2022-10-01T01:28:36.432Z,53.20
2022-10-01T01:29:36.434Z,56.63
2022-10-01T01:30:36.422Z,59.96
2022-10-01T01:31:37.025Z,55.91
2022-10-01T01:32:36.417Z,51.30
2022-10-01T01:33:36.410Z,52.39
2022-10-01T01:34:36.394Z,58.51
2022-10-01T01:35:36.385Z,60.13
2022-10-01T01:36:36.393Z,51.73
2022-10-01T01:37:36.372Z,59.49
2022-10-01T01:38:36.405Z,58.28
2022-10-01T01:39:36.358Z,53.82
2022-10-01T01:40:36.340Z,54.90
2022-10-01T01:41:36.585Z,62.96
2022-10-01T01:42:36.328Z,60.26
2022-10-01T01:43:36.328Z,49.41
2022-10-01T01:44:36.318Z,51.37
2022-10-01T01:45:36.365Z,54.05
2022-10-01T01:46:36.311Z,62.30
2022-10-01T01:47:36.314Z,51.70
2022-10-01T01:48:37.286Z,55.24
2022-10-01T01:49:36.816Z,48.19
2022-10-01T01:50:36.275Z,57.44
2022-10-01T01:51:36.569Z,59.41
2022-10-01T01:52:36.261Z,57.28
2022-10-01T01:53:36.248Z,51.69
2022-10-01T01:54:36.822Z,57.49
2022-10-01T01:55:36.234Z,56.38
2022-10-01T01:56:36.234Z,51.09
2022-10-01T01:57:36.214Z,55.39
2022-10-01T01:58:36.218Z,58.93
2022-10-01T01:59:36.209Z,59.97
2022-10-01T02:00:36.199Z,51.60
2022-10-01T02:01:36.712Z,52.33
2022-10-01T02:02:36.257Z,58.03
2022-10-01T02:03:36.172Z,51.94
2022-10-01T02:04:36.167Z,60.66
2022-10-01T02:05:36.159Z,53.64
2022-10-01T02:06:36.155Z,51.30
2022-10-01T02:07:36.139Z,52.24
2022-10-01T02:08:36.132Z,60.00
2022-10-01T02:09:36.131Z,56.77
2022-10-01T02:10:36.130Z,50.61
2022-10-01T02:11:36.405Z,54.23
2022-10-01T02:12:36.105Z,59.18
2022-10-01T02:13:36.100Z,49.33
2022-10-01T02:14:36.088Z,57.90
2022-10-01T02:15:36.175Z,57.52
2022-10-01T02:16:36.074Z,56.72
2022-10-01T02:17:36.053Z,44.38
2022-10-01T02:18:36.054Z,54.83
2022-10-01T02:19:36.046Z,50.20
2022-10-01T02:20:36.049Z,48.55
2022-10-01T02:21:36.375Z,44.97
2022-10-01T02:22:36.020Z,47.07
2022-10-01T02:23:36.015Z,58.44
2022-10-01T02:24:36.007Z,56.39
2022-10-01T02:25:37.914Z,51.59
2022-10-01T02:26:35.987Z,55.15
2022-10-01T02:27:35.978Z,54.94
2022-10-01T02:28:35.977Z,56.72
2022-10-01T02:29:35.965Z,57.20
2022-10-01T02:30:35.960Z,58.81
2022-10-01T02:31:36.418Z,55.51
2022-10-01T02:32:36.907Z,61.07
2022-10-01T02:33:35.944Z,56.94
2022-10-01T02:34:35.930Z,53.83
2022-10-01T02:35:35.913Z,50.98
2022-10-01T02:36:35.904Z,55.34
2022-10-01T02:37:35.906Z,59.77
2022-10-01T02:38:35.898Z,52.84
2022-10-01T02:39:35.880Z,46.98
2022-10-01T02:40:35.889Z,52.06
2022-10-01T02:41:36.364Z,61.21
2022-10-01T02:42:36.401Z,48.60
2022-10-01T02:43:38.377Z,52.01
2022-10-01T02:44:37.847Z,53.81
2022-10-01T02:45:35.897Z,51.22
2022-10-01T02:46:35.832Z,56.70
2022-10-01T02:47:35.818Z,55.27
2022-10-01T02:48:36.808Z,51.50
2022-10-01T02:49:35.821Z,46.44
2022-10-01T02:50:35.784Z,50.80
2022-10-01T02:51:36.245Z,57.14
2022-10-01T02:52:35.791Z,50.98
2022-10-01T02:53:35.769Z,56.11
2022-10-01T02:54:35.763Z,51.23
2022-10-01T02:55:35.748Z,53.24
2022-10-01T02:56:35.754Z,52.11
2022-10-01T02:57:35.732Z,54.16
2022-10-01T02:58:35.719Z,54.20
2022-10-01T02:59:35.726Z,51.84
2022-10-01T03:00:35.709Z,57.60
2022-10-01T03:01:36.145Z,56.65
2022-10-01T03:02:35.717Z,53.26
2022-10-01T03:03:35.680Z,53.45
2022-10-01T03:04:35.679Z,49.79
2022-10-01T03:05:35.681Z,60.55
2022-10-01T03:06:35.663Z,59.82
2022-10-01T03:07:35.714Z,54.73
2022-10-01T03:08:35.649Z,56.39
2022-10-01T03:09:35.643Z,52.74
2022-10-01T03:10:35.644Z,53.35
2022-10-01T03:11:36.043Z,60.52
2022-10-01T03:12:35.639Z,59.82
2022-10-01T03:13:35.617Z,56.04
2022-10-01T03:14:35.612Z,56.80
2022-10-01T03:15:35.666Z,61.90
2022-10-01T03:16:35.585Z,59.23
2022-10-01T03:17:37.432Z,59.82
2022-10-01T03:18:37.416Z,50.79
2022-10-01T03:19:35.710Z,52.20
2022-10-01T03:20:35.554Z,59.23
2022-10-01T03:21:36.184Z,58.62
2022-10-01T03:22:35.534Z,48.31
2022-10-01T03:23:36.352Z,53.16
2022-10-01T03:24:35.531Z,59.53
2022-10-01T03:25:35.520Z,56.33
2022-10-01T03:26:35.510Z,49.34
2022-10-01T03:27:35.496Z,56.34
2022-10-01T03:28:35.491Z,57.05
2022-10-01T03:29:36.425Z,60.57
2022-10-01T03:30:35.487Z,57.22
2022-10-01T03:31:37.103Z,56.82
2022-10-01T03:32:36.467Z,58.65
2022-10-01T03:33:35.456Z,56.20
2022-10-01T03:34:35.458Z,57.14
2022-10-01T03:35:35.436Z,55.24
2022-10-01T03:36:35.443Z,57.84
2022-10-01T03:37:37.417Z,57.72
2022-10-01T03:38:35.434Z,55.16
2022-10-01T03:39:35.413Z,57.95
2022-10-01T03:40:36.341Z,58.09
2022-10-01T03:41:37.334Z,53.91
2022-10-01T03:42:35.378Z,56.21
2022-10-01T03:43:35.394Z,62.64
2022-10-01T03:44:35.371Z,58.25
2022-10-01T03:45:35.430Z,61.44
2022-10-01T03:46:35.387Z,58.71
2022-10-01T03:47:35.335Z,55.34
2022-10-01T03:48:35.325Z,53.96
2022-10-01T03:49:35.322Z,57.66
2022-10-01T03:50:35.863Z,57.27
2022-10-01T03:51:35.681Z,60.82
2022-10-01T03:52:35.301Z,60.45
2022-10-01T03:53:36.927Z,54.35
2022-10-01T03:54:35.289Z,56.61
2022-10-01T03:55:35.287Z,53.09
2022-10-01T03:56:35.263Z,54.32
2022-10-01T03:57:36.845Z,59.01
2022-10-01T03:58:35.250Z,62.23
2022-10-01T03:59:35.256Z,53.99
2022-10-01T04:00:35.295Z,56.47
2022-10-01T04:01:36.804Z,53.03
2022-10-01T04:02:35.314Z,57.18
2022-10-01T04:03:35.214Z,57.82
2022-10-01T04:04:35.224Z,52.15
2022-10-01T04:05:35.204Z,52.87
2022-10-01T04:06:35.201Z,60.54
2022-10-01T04:07:35.187Z,59.09
2022-10-01T04:08:35.214Z,58.40
2022-10-01T04:09:35.177Z,57.04
2022-10-01T04:10:35.171Z,59.33
2022-10-01T04:11:35.548Z,57.55
2022-10-01T04:12:35.156Z,60.20
2022-10-01T04:13:35.139Z,60.21
2022-10-01T04:14:35.134Z,57.37
2022-10-01T04:15:35.950Z,58.28
2022-10-01T04:16:36.367Z,70.45
2022-10-01T04:17:35.107Z,63.07
2022-10-01T04:18:35.105Z,58.03
2022-10-01T04:19:35.097Z,62.00
2022-10-01T04:20:35.082Z,60.82
2022-10-01T04:21:35.407Z,60.94
2022-10-01T04:22:35.069Z,61.59
2022-10-01T04:23:35.065Z,58.20
2022-10-01T04:24:35.046Z,57.26
2022-10-01T04:25:35.047Z,60.98
2022-10-01T04:26:35.050Z,56.29
2022-10-01T04:27:35.019Z,60.67
2022-10-01T04:28:35.013Z,59.77
2022-10-01T04:29:39.949Z,62.03
2022-10-01T04:30:37.009Z,59.21
2022-10-01T04:31:35.710Z,62.36
2022-10-01T04:32:34.978Z,58.06
2022-10-01T04:33:34.975Z,58.19
2022-10-01T04:34:34.980Z,62.49
2022-10-01T04:35:34.968Z,65.61
2022-10-01T04:36:34.964Z,60.69
2022-10-01T04:37:34.943Z,64.45
2022-10-01T04:38:34.935Z,66.78
2022-10-01T04:39:34.936Z,66.15
2022-10-01T04:40:34.927Z,63.82
2022-10-01T04:41:35.192Z,61.87
2022-10-01T04:42:34.907Z,61.92
2022-10-01T04:43:35.061Z,60.63
2022-10-01T04:44:34.886Z,55.58
2022-10-01T04:45:34.895Z,55.95
2022-10-01T04:46:34.905Z,55.76
2022-10-01T04:47:37.604Z,62.12
2022-10-01T04:48:35.862Z,56.55
2022-10-01T04:49:34.870Z,59.52
2022-10-01T04:50:38.352Z,54.00
2022-10-01T04:51:35.289Z,58.50
2022-10-01T04:52:35.826Z,61.87
2022-10-01T04:53:34.817Z,64.17
2022-10-01T04:54:34.824Z,66.43
2022-10-01T04:55:34.807Z,61.17
2022-10-01T04:56:34.802Z,59.77
2022-10-01T04:57:36.427Z,60.62
2022-10-01T04:58:34.777Z,62.30
2022-10-01T04:59:34.781Z,64.16
2022-10-01T05:00:34.824Z,62.67
2022-10-01T05:01:35.191Z,62.59
2022-10-01T05:02:36.392Z,64.69
2022-10-01T05:03:34.744Z,63.83
2022-10-01T05:04:34.734Z,60.93
2022-10-01T05:05:34.741Z,60.48
2022-10-01T05:06:36.432Z,61.21
2022-10-01T05:07:34.733Z,63.47
2022-10-01T05:08:34.704Z,63.95
2022-10-01T05:09:34.698Z,61.90
2022-10-01T05:10:38.443Z,62.04
2022-10-01T05:11:35.763Z,57.04
2022-10-01T05:12:34.679Z,62.95
2022-10-01T05:13:34.653Z,66.01
2022-10-01T05:14:34.654Z,59.97
2022-10-01T05:15:34.643Z,65.53
2022-10-01T05:16:34.675Z,63.02
2022-10-01T05:17:34.632Z,56.48
2022-10-01T05:18:34.614Z,61.38
2022-10-01T05:19:34.620Z,62.70
2022-10-01T05:20:34.600Z,62.30
2022-10-01T05:21:34.915Z,65.40
2022-10-01T05:22:37.355Z,66.05
2022-10-01T05:23:34.581Z,56.96
2022-10-01T05:24:34.569Z,61.78
2022-10-01T05:25:36.463Z,61.82
2022-10-01T05:26:36.363Z,66.31
2022-10-01T05:27:34.540Z,63.50
2022-10-01T05:28:34.615Z,63.10
2022-10-01T05:29:34.531Z,59.25
2022-10-01T05:30:34.526Z,64.07
2022-10-01T05:31:34.911Z,61.28
2022-10-01T05:32:35.517Z,67.73
2022-10-01T05:33:36.441Z,60.84
2022-10-01T05:34:34.497Z,61.60
2022-10-01T05:35:34.481Z,59.49
2022-10-01T05:36:34.489Z,66.04
2022-10-01T05:37:34.475Z,64.79
2022-10-01T05:38:34.449Z,67.16
2022-10-01T05:39:35.449Z,65.32
2022-10-01T05:40:34.448Z,64.08
2022-10-01T05:41:34.707Z,64.33
2022-10-01T05:42:35.426Z,63.36
2022-10-01T05:43:34.425Z,64.50
2022-10-01T05:44:34.415Z,65.67
2022-10-01T05:45:34.434Z,67.75
2022-10-01T05:46:36.362Z,61.67
2022-10-01T05:47:34.382Z,62.81
2022-10-01T05:48:34.372Z,67.10
2022-10-01T05:49:34.939Z,62.30
2022-10-01T05:50:34.369Z,65.44
2022-10-01T05:51:34.614Z,64.10
2022-10-01T05:52:35.343Z,63.30
2022-10-01T05:53:35.879Z,64.39
2022-10-01T05:54:34.340Z,66.32
2022-10-01T05:55:34.320Z,65.27
2022-10-01T05:56:34.305Z,65.78
2022-10-01T05:57:34.882Z,66.99
2022-10-01T05:58:34.313Z,65.46
2022-10-01T05:59:35.291Z,62.03
2022-10-01T06:00:34.290Z,62.89
2022-10-01T06:01:34.519Z,67.28
2022-10-01T06:02:34.404Z,69.61
2022-10-01T06:03:34.260Z,67.95
2022-10-01T06:04:38.976Z,64.73
2022-10-01T06:05:37.943Z,61.42
2022-10-01T06:06:34.233Z,62.35
2022-10-01T06:07:35.873Z,65.79
2022-10-01T06:08:34.264Z,64.38
2022-10-01T06:09:34.214Z,63.24
2022-10-01T06:10:35.943Z,62.46
2022-10-01T06:11:34.426Z,61.35
2022-10-01T06:12:34.184Z,63.17
2022-10-01T06:13:35.945Z,63.91
2022-10-01T06:14:36.955Z,64.28
2022-10-01T06:15:34.168Z,64.37
2022-10-01T06:16:34.176Z,65.29
2022-10-01T06:17:35.950Z,61.61
2022-10-01T06:18:34.129Z,62.90
2022-10-01T06:19:34.136Z,66.79
2022-10-01T06:20:34.127Z,68.98
2022-10-01T06:21:36.353Z,65.75
2022-10-01T06:22:34.110Z,66.67
2022-10-01T06:23:34.088Z,67.07
2022-10-01T06:24:34.966Z,66.41
2022-10-01T06:25:35.979Z,67.94
2022-10-01T06:26:34.101Z,62.80
2022-10-01T06:27:34.071Z,70.60
2022-10-01T06:28:35.881Z,66.93
2022-10-01T06:29:34.051Z,64.82
2022-10-01T06:30:34.030Z,70.18
2022-10-01T06:31:34.455Z,66.29
2022-10-01T06:32:35.091Z,68.03
2022-10-01T06:33:35.010Z,66.40
2022-10-01T06:34:34.036Z,66.99
2022-10-01T06:35:33.989Z,65.99
2022-10-01T06:36:33.991Z,67.71
2022-10-01T06:37:33.973Z,63.83
2022-10-01T06:38:33.971Z,68.22
2022-10-01T06:39:33.986Z,69.11
2022-10-01T06:40:34.454Z,63.14
2022-10-01T06:41:34.188Z,64.71
2022-10-01T06:42:34.942Z,66.51
2022-10-01T06:43:34.150Z,66.88
2022-10-01T06:44:33.916Z,67.03
2022-10-01T06:45:33.991Z,68.48
2022-10-01T06:46:33.907Z,65.60
2022-10-01T06:47:33.930Z,65.36
2022-10-01T06:48:33.898Z,65.02
2022-10-01T06:49:33.880Z,65.88
2022-10-01T06:50:33.873Z,67.76
2022-10-01T06:51:34.105Z,67.10
2022-10-01T06:52:33.870Z,67.09
2022-10-01T06:53:33.869Z,62.96
2022-10-01T06:54:33.848Z,69.48
2022-10-01T06:55:33.839Z,67.96
2022-10-01T06:56:33.824Z,68.80
2022-10-01T06:57:33.829Z,69.16
2022-10-01T06:58:33.980Z,66.03
2022-10-01T06:59:35.450Z,66.80
2022-10-01T07:00:34.388Z,67.24
2022-10-01T07:01:34.229Z,67.59
2022-10-01T07:02:33.928Z,69.56
2022-10-01T07:03:33.790Z,68.03
2022-10-01T07:04:33.781Z,63.62
2022-10-01T07:05:34.766Z,62.87
2022-10-01T07:06:33.774Z,65.37
2022-10-01T07:07:33.752Z,67.55
2022-10-01T07:08:33.771Z,65.62
2022-10-01T07:09:33.737Z,67.63
2022-10-01T07:10:33.719Z,65.42
2022-10-01T07:11:33.967Z,65.45
2022-10-01T07:12:33.719Z,67.18
2022-10-01T07:13:33.718Z,64.48
2022-10-01T07:14:33.697Z,67.74
2022-10-01T07:15:34.388Z,67.36
2022-10-01T07:16:33.719Z,66.41
2022-10-01T07:17:33.671Z,65.68
2022-10-01T07:18:33.663Z,66.36
2022-10-01T07:19:35.381Z,67.46
2022-10-01T07:20:33.656Z,71.02
2022-10-01T07:21:33.896Z,67.20
2022-10-01T07:22:33.627Z,66.08
2022-10-01T07:23:33.629Z,64.49
2022-10-01T07:24:33.621Z,65.68
2022-10-01T07:25:34.390Z,68.92
2022-10-01T07:26:35.383Z,67.59
2022-10-01T07:27:33.599Z,68.16
2022-10-01T07:28:35.384Z,66.60
2022-10-01T07:29:33.593Z,64.76
2022-10-01T07:30:33.570Z,66.75
2022-10-01T07:31:33.965Z,65.39
2022-10-01T07:32:34.392Z,67.40
2022-10-01T07:33:33.549Z,67.73
2022-10-01T07:34:33.543Z,66.45
2022-10-01T07:35:33.529Z,65.28
2022-10-01T07:36:33.539Z,67.90
2022-10-01T07:37:33.519Z,67.06
2022-10-01T07:38:34.473Z,67.97
2022-10-01T07:39:33.505Z,67.65
2022-10-01T07:40:33.503Z,68.46
2022-10-01T07:41:34.828Z,67.80
2022-10-01T07:42:33.486Z,68.96
2022-10-01T07:43:33.476Z,66.49
2022-10-01T07:44:33.461Z,66.23
2022-10-01T07:45:33.481Z,68.80
2022-10-01T07:46:34.848Z,68.52
2022-10-01T07:47:33.451Z,66.73
2022-10-01T07:48:33.438Z,68.07
2022-10-01T07:49:33.418Z,67.07
2022-10-01T07:50:33.436Z,67.19
2022-10-01T07:51:33.687Z,68.80
2022-10-01T07:52:33.429Z,68.57
2022-10-01T07:53:33.397Z,65.60
2022-10-01T07:54:33.390Z,69.61
2022-10-01T07:55:33.967Z,69.23
2022-10-01T07:56:33.373Z,67.80
2022-10-01T07:57:36.966Z,68.70
2022-10-01T07:58:34.348Z,67.61
2022-10-01T07:59:33.356Z,68.03
2022-10-01T08:00:33.349Z,68.26
2022-10-01T08:01:33.846Z,66.93
2022-10-01T08:02:33.376Z,66.58
2022-10-01T08:03:33.322Z,67.35
2022-10-01T08:04:33.329Z,68.99
2022-10-01T08:05:33.313Z,67.71
2022-10-01T08:06:33.327Z,66.88
2022-10-01T08:07:33.292Z,68.09
2022-10-01T08:08:34.977Z,67.20
2022-10-01T08:09:33.901Z,69.91
2022-10-01T08:10:33.268Z,68.76
2022-10-01T08:11:33.521Z,67.71
2022-10-01T08:12:33.263Z,69.31
2022-10-01T08:13:33.240Z,66.61
2022-10-01T08:14:34.012Z,66.29
2022-10-01T08:15:33.221Z,69.68
2022-10-01T08:16:34.006Z,69.25
2022-10-01T08:17:33.500Z,69.24
2022-10-01T08:18:33.199Z,68.74
2022-10-01T08:19:33.994Z,69.81
2022-10-01T08:20:33.184Z,72.41
2022-10-01T08:21:34.210Z,70.26
2022-10-01T08:22:37.517Z,67.38
2022-10-01T08:23:34.150Z,69.70
2022-10-01T08:24:33.163Z,69.82
2022-10-01T08:25:33.986Z,68.31
2022-10-01T08:26:33.132Z,72.59
2022-10-01T08:27:33.981Z,69.91
2022-10-01T08:28:33.129Z,68.30
2022-10-01T08:29:33.917Z,69.70
2022-10-01T08:30:33.100Z,70.09
2022-10-01T08:31:33.472Z,70.33
2022-10-01T08:32:33.988Z,71.79
2022-10-01T08:33:33.072Z,68.60
2022-10-01T08:34:33.069Z,70.00
2022-10-01T08:35:33.070Z,68.65
2022-10-01T08:36:33.053Z,67.92
2022-10-01T08:37:33.044Z,71.65
2022-10-01T08:38:34.049Z,69.52
2022-10-01T08:39:33.040Z,71.17
2022-10-01T08:40:33.018Z,68.77
2022-10-01T08:41:33.014Z,67.69
2022-10-01T08:42:34.929Z,67.49
2022-10-01T08:45:40.759Z,68.59
2022-10-01T08:46:39.862Z,67.28
2022-10-01T08:47:39.848Z,68.66
2022-10-01T08:48:40.950Z,69.47
2022-10-01T08:49:40.931Z,70.78
2022-10-01T08:50:42.342Z,68.39
2022-10-01T08:51:40.928Z,67.72
2022-10-01T08:52:40.900Z,69.00
2022-10-01T08:53:41.843Z,69.88
2022-10-01T08:54:40.893Z,68.68
2022-10-01T08:55:40.890Z,70.26
2022-10-01T08:56:42.821Z,68.88
2022-10-01T08:57:40.887Z,69.37
2022-10-01T08:58:40.863Z,68.28
2022-10-01T08:59:41.734Z,68.12
2022-10-01T09:00:40.858Z,69.36
2022-10-01T09:01:40.889Z,69.02
2022-10-01T09:02:40.822Z,69.83
2022-10-01T09:03:40.832Z,71.18
2022-10-01T09:04:41.418Z,69.53
2022-10-01T09:05:40.818Z,68.14
2022-10-01T09:06:40.807Z,68.92
2022-10-01T09:07:40.782Z,67.62
2022-10-01T09:08:40.784Z,69.05
2022-10-01T09:09:43.242Z,67.21
2022-10-01T09:10:40.871Z,68.30
2022-10-01T09:11:40.747Z,66.67
2022-10-01T09:12:40.741Z,68.44
2022-10-01T09:13:40.917Z,68.26
2022-10-01T09:14:40.726Z,68.47
2022-10-01T09:15:42.309Z,67.57
2022-10-01T09:16:40.736Z,69.06
2022-10-01T09:17:40.706Z,68.51
2022-10-01T09:18:40.834Z,69.26
2022-10-01T09:19:40.982Z,67.70
2022-10-01T09:20:41.682Z,70.86
2022-10-01T09:21:42.422Z,67.99
2022-10-01T09:22:40.681Z,67.59
2022-10-01T09:23:42.314Z,68.97
2022-10-01T09:24:40.656Z,69.60
2022-10-01T09:25:40.649Z,68.21
2022-10-01T09:26:40.632Z,68.49
2022-10-01T09:27:42.232Z,72.05
2022-10-01T09:28:40.619Z,69.89
2022-10-01T09:29:40.629Z,69.01
2022-10-01T09:30:40.605Z,69.64
2022-10-01T09:31:40.611Z,68.42
2022-10-01T09:32:42.321Z,67.38
2022-10-01T09:33:40.579Z,69.57
2022-10-01T09:34:40.562Z,69.07
2022-10-01T09:35:40.582Z,70.38
2022-10-01T09:36:41.539Z,69.04
2022-10-01T09:37:40.544Z,70.03
2022-10-01T09:38:40.523Z,67.77
2022-10-01T09:39:40.520Z,68.85
2022-10-01T09:40:40.521Z,67.01
2022-10-01T09:41:40.500Z,68.13
2022-10-01T09:42:40.493Z,69.51
2022-10-01T09:43:40.489Z,68.37
2022-10-01T09:44:40.482Z,69.26
2022-10-01T09:45:44.434Z,68.59
2022-10-01T09:46:44.288Z,67.56
2022-10-01T09:47:41.245Z,67.92
2022-10-01T09:48:40.446Z,67.59
2022-10-01T09:49:40.439Z,68.67
2022-10-01T09:52:47.019Z,68.40
2022-10-01T09:53:47.009Z,68.64
2022-10-01T09:54:47.015Z,66.59
2022-10-01T09:55:47.000Z,68.12
2022-10-01T09:56:48.661Z,67.01
2022-10-01T09:57:48.082Z,69.07
2022-10-01T09:58:48.063Z,67.56
2022-10-01T09:59:48.061Z,70.01
2022-10-01T10:00:48.050Z,70.11
2022-10-01T10:01:48.235Z,68.43
2022-10-01T10:02:49.616Z,68.58
2022-10-01T10:03:49.038Z,69.14
2022-10-01T10:04:48.020Z,69.39
2022-10-01T10:05:48.040Z,68.51
2022-10-01T10:06:48.010Z,67.61
2022-10-01T10:07:47.991Z,68.79
2022-10-01T10:08:47.987Z,68.01
2022-10-01T10:09:47.992Z,67.70
2022-10-01T10:10:48.584Z,66.63
2022-10-01T10:11:47.961Z,69.40
2022-10-01T10:12:47.947Z,67.03
2022-10-01T10:13:48.585Z,69.21
2022-10-01T10:14:48.677Z,68.81
2022-10-01T10:15:47.959Z,68.88
2022-10-01T10:16:47.919Z,66.56
2022-10-01T10:17:47.906Z,68.91
2022-10-01T10:18:47.901Z,67.85
2022-10-01T10:19:47.892Z,69.46
2022-10-01T10:20:47.897Z,70.19
2022-10-01T10:21:47.873Z,71.73
2022-10-01T10:22:47.877Z,69.61
2022-10-01T10:23:47.867Z,67.49
2022-10-01T10:24:47.860Z,69.04
2022-10-01T10:25:47.852Z,68.29
2022-10-01T10:26:47.838Z,68.02
2022-10-01T10:27:47.854Z,67.30
2022-10-01T10:28:48.624Z,68.55
2022-10-01T10:30:09.773Z,69.66
2022-10-01T10:30:47.831Z,68.94
2022-10-01T10:31:47.899Z,68.92
2022-10-01T10:32:48.590Z,68.91
2022-10-01T10:33:47.813Z,67.40
2022-10-01T10:34:47.774Z,67.94
2022-10-01T10:35:47.769Z,67.65
2022-10-01T10:36:47.749Z,67.37
2022-10-01T10:37:47.749Z,67.20
2022-10-01T10:38:47.750Z,68.50
2022-10-01T10:39:53.576Z,67.14
2022-10-01T10:40:48.730Z,64.37
2022-10-01T10:41:49.644Z,69.20
2022-10-01T10:42:47.721Z,66.97
2022-10-01T10:43:47.706Z,68.40
2022-10-01T10:44:48.669Z,71.39
2022-10-01T10:45:47.675Z,66.99
2022-10-01T10:46:47.900Z,66.83
2022-10-01T10:47:47.666Z,67.40
2022-10-01T10:48:48.594Z,68.21
2022-10-01T10:49:47.655Z,66.09
2022-10-01T10:50:47.631Z,66.69
2022-10-01T10:51:47.626Z,68.44
2022-10-01T10:52:48.596Z,64.01
2022-10-01T10:53:47.618Z,66.93
2022-10-01T10:54:49.597Z,66.72
2022-10-01T10:55:47.600Z,67.66
2022-10-01T10:56:47.594Z,68.26
2022-10-01T10:57:47.579Z,66.89
2022-10-01T10:58:47.585Z,68.69
2022-10-01T10:59:47.563Z,67.22
2022-10-01T11:00:47.581Z,66.61
2022-10-01T11:01:47.763Z,66.85
2022-10-01T11:02:47.586Z,66.52
2022-10-01T11:03:47.542Z,68.87
2022-10-01T11:04:47.524Z,67.11
2022-10-01T11:05:47.527Z,67.87
2022-10-01T11:06:47.516Z,67.31
2022-10-01T11:07:47.503Z,66.71
2022-10-01T11:08:47.511Z,65.20
2022-10-01T11:09:47.492Z,66.60
2022-10-01T11:10:47.480Z,67.74
2022-10-01T11:11:47.474Z,67.02
2022-10-01T11:12:47.487Z,67.39
2022-10-01T11:13:51.087Z,67.50
2022-10-01T11:14:50.095Z,65.86
2022-10-01T11:15:47.504Z,66.01
2022-10-01T11:16:47.439Z,68.07
2022-10-01T11:17:47.420Z,70.07
2022-10-01T11:18:47.424Z,67.11
2022-10-01T11:19:47.417Z,66.33
2022-10-01T11:20:47.404Z,66.25
2022-10-01T11:21:47.392Z,67.18
2022-10-01T11:22:47.381Z,64.77
2022-10-01T11:23:47.390Z,67.37
2022-10-01T11:24:47.372Z,66.26
2022-10-01T11:25:47.364Z,65.62
2022-10-01T11:26:50.543Z,67.47
2022-10-01T11:27:48.365Z,66.45
2022-10-01T11:28:47.341Z,64.95
2022-10-01T11:29:47.337Z,66.26
2022-10-01T11:30:47.323Z,66.60
2022-10-01T11:31:47.385Z,64.78
2022-10-01T11:32:47.308Z,67.20
2022-10-01T11:33:48.184Z,65.77
2022-10-01T11:34:47.325Z,65.91
2022-10-01T11:35:47.276Z,65.45
2022-10-01T11:36:48.040Z,66.83
2022-10-01T11:37:47.290Z,64.86
2022-10-01T11:38:47.269Z,66.42
2022-10-01T11:39:47.243Z,66.05
2022-10-01T11:40:47.239Z,66.95
2022-10-01T11:41:47.225Z,67.69
2022-10-01T11:42:47.212Z,65.37
2022-10-01T11:43:47.223Z,66.19
2022-10-01T11:44:47.201Z,65.28
2022-10-01T11:45:47.206Z,66.26
2022-10-01T11:46:47.726Z,65.99
2022-10-01T11:47:47.176Z,67.23
2022-10-01T11:48:47.176Z,66.01
2022-10-01T11:49:48.171Z,67.46
2022-10-01T11:50:47.148Z,66.69
2022-10-01T11:51:47.141Z,69.98
2022-10-01T11:52:47.143Z,66.77
2022-10-01T11:53:47.128Z,67.72
2022-10-01T11:54:47.127Z,67.91
2022-10-01T11:55:47.107Z,68.42
2022-10-01T11:56:47.107Z,66.55
2022-10-01T11:57:48.687Z,68.10
2022-10-01T11:58:47.087Z,68.16
2022-10-01T11:59:48.710Z,68.06
2022-10-01T12:00:47.065Z,68.71
2022-10-01T12:01:47.091Z,68.48
2022-10-01T12:02:47.063Z,69.38
2022-10-01T12:03:47.051Z,69.71
2022-10-01T12:04:47.052Z,68.15
2022-10-01T12:05:47.115Z,69.83
2022-10-01T12:06:47.697Z,70.43
2022-10-01T12:07:47.018Z,68.29
2022-10-01T12:08:47.010Z,68.99
2022-10-01T12:09:46.996Z,69.89
2022-10-01T12:10:46.991Z,66.69
2022-10-01T12:11:47.617Z,68.50
2022-10-01T12:12:46.977Z,67.78
2022-10-01T12:13:46.974Z,65.73
2022-10-01T12:14:46.972Z,68.14
2022-10-01T12:15:47.322Z,68.69
2022-10-01T12:16:48.631Z,68.20
2022-10-01T12:17:46.937Z,65.12
2022-10-01T12:18:46.927Z,67.63
2022-10-01T12:19:46.959Z,69.94
2022-10-01T12:20:48.620Z,69.48
2022-10-01T12:21:48.715Z,71.16
2022-10-01T12:22:47.716Z,69.87
2022-10-01T12:23:46.892Z,69.16
2022-10-01T12:24:48.626Z,67.26
2022-10-01T12:25:46.864Z,69.46
2022-10-01T12:26:46.876Z,69.57
2022-10-01T12:27:46.891Z,68.61
2022-10-01T12:28:52.006Z,68.05
2022-10-01T12:29:48.838Z,67.69
2022-10-01T12:30:46.833Z,69.01
2022-10-01T12:31:46.897Z,70.69
2022-10-01T12:32:46.817Z,69.20
2022-10-01T12:33:46.808Z,69.96
2022-10-01T12:34:49.395Z,69.05
2022-10-01T12:35:48.799Z,67.78
2022-10-01T12:36:46.793Z,68.22
2022-10-01T12:37:46.786Z,70.47
2022-10-01T12:38:46.770Z,68.89
2022-10-01T12:39:46.759Z,68.55
2022-10-01T12:40:46.747Z,69.76
2022-10-01T12:41:46.748Z,67.28
2022-10-01T12:42:46.764Z,68.51
2022-10-01T12:43:49.636Z,70.24
2022-10-01T12:44:46.713Z,66.22
2022-10-01T12:45:46.833Z,68.56
2022-10-01T12:46:47.310Z,67.81
2022-10-01T12:47:46.698Z,67.30
2022-10-01T12:48:46.698Z,68.62
2022-10-01T12:49:46.686Z,68.50
2022-10-01T12:50:47.671Z,66.89
2022-10-01T12:51:46.663Z,69.38
2022-10-01T12:52:46.657Z,69.64
2022-10-01T12:53:46.646Z,70.69
2022-10-01T12:54:46.637Z,68.28
2022-10-01T12:55:46.635Z,68.72
2022-10-01T12:56:46.620Z,68.78
2022-10-01T12:57:47.209Z,69.34
2022-10-01T12:58:46.614Z,66.51
2022-10-01T12:59:53.211Z,68.56
2022-10-01T13:02:57.397Z,69.14